sensor_id;sensor_type;location;lat;lon;timestamp;temperature;humidity
9537;DHT22;4807;48.024;11.726;2022-10-16T00:01:59;11.60;99.90
9537;DHT22;4807;48.024;11.726;2022-10-16T00:05:08;11.40;99.90
9537;DHT22;4807;48.024;11.726;2022-10-16T00:08:18;11.20;99.90
9537;DHT22;4807;48.024;11.726;2022-10-16T00:11:29;11.20;99.90
9537;DHT22;4807;48.024;11.726;2022-10-16T00:14:40;11.20;99.90
9537;DHT22;4807;48.024;11.726;2022-10-16T00:17:50;11.20;99.90
9537;DHT22;4807;48.024;11.726;2022-10-16T00:21:02;11.30;99.90
9537;DHT22;4807;48.024;11.726;2022-10-16T00:24:14;11.30;99.90
9537;DHT22;4807;48.024;11.726;2022-10-16T00:27:23;11.40;99.90
9537;DHT22;4807;48.024;11.726;2022-10-16T00:30:33;11.50;99.90
9537;DHT22;4807;48.024;11.726;2022-10-16T00:33:41;11.30;99.90
9537;DHT22;4807;48.024;11.726;2022-10-16T00:36:50;11.30;99.90
9537;DHT22;4807;48.024;11.726;2022-10-16T00:40:22;11.20;99.90
9537;DHT22;4807;48.024;11.726;2022-10-16T00:43:37;11.20;99.90
9537;DHT22;4807;48.024;11.726;2022-10-16T00:46:48;11.20;99.90
9537;DHT22;4807;48.024;11.726;2022-10-16T00:50:00;11.10;99.90
9537;DHT22;4807;48.024;11.726;2022-10-16T00:53:14;11.10;99.90
9537;DHT22;4807;48.024;11.726;2022-10-16T00:56:26;11.20;99.90
9537;DHT22;4807;48.024;11.726;2022-10-16T00:59:37;11.20;99.90
9537;DHT22;4807;48.024;11.726;2022-10-16T01:02:52;11.30;99.90
9537;DHT22;4807;48.024;11.726;2022-10-16T01:06:09;11.30;99.90
9537;DHT22;4807;48.024;11.726;2022-10-16T01:09:32;11.40;99.90
9537;DHT22;4807;48.024;11.726;2022-10-16T01:12:51;11.30;99.90
9537;DHT22;4807;48.024;11.726;2022-10-16T01:16:09;11.30;99.90
9537;DHT22;4807;48.024;11.726;2022-10-16T01:19:38;11.20;99.90
9537;DHT22;4807;48.024;11.726;2022-10-16T01:23:10;11.20;99.90
9537;DHT22;4807;48.024;11.726;2022-10-16T01:26:37;11.20;99.90
9537;DHT22;4807;48.024;11.726;2022-10-16T01:30:02;11.30;99.90
9537;DHT22;4807;48.024;11.726;2022-10-16T01:33:19;11.30;99.90
9537;DHT22;4807;48.024;11.726;2022-10-16T01:36:36;11.20;99.90
9537;DHT22;4807;48.024;11.726;2022-10-16T01:39:49;11.10;99.90
9537;DHT22;4807;48.024;11.726;2022-10-16T01:43:04;11.00;99.90
9537;DHT22;4807;48.024;11.726;2022-10-16T01:46:20;11.00;99.90
9537;DHT22;4807;48.024;11.726;2022-10-16T01:49:33;11.20;99.90
9537;DHT22;4807;48.024;11.726;2022-10-16T01:52:47;10.90;99.90
9537;DHT22;4807;48.024;11.726;2022-10-16T01:55:59;10.80;99.90
9537;DHT22;4807;48.024;11.726;2022-10-16T01:59:12;10.70;99.90
9537;DHT22;4807;48.024;11.726;2022-10-16T02:02:27;10.70;99.90
9537;DHT22;4807;48.024;11.726;2022-10-16T02:05:42;10.70;99.90
9537;DHT22;4807;48.024;11.726;2022-10-16T02:08:53;10.80;99.90
9537;DHT22;4807;48.024;11.726;2022-10-16T02:12:06;10.70;99.90
9537;DHT22;4807;48.024;11.726;2022-10-16T02:15:20;10.70;99.90
9537;DHT22;4807;48.024;11.726;2022-10-16T02:18:29;10.60;99.90
9537;DHT22;4807;48.024;11.726;2022-10-16T02:21:43;10.60;99.90
9537;DHT22;4807;48.024;11.726;2022-10-16T02:24:59;10.60;99.90
9537;DHT22;4807;48.024;11.726;2022-10-16T02:28:16;9.70;99.90
9537;DHT22;4807;48.024;11.726;2022-10-16T02:31:31;10.70;99.90
9537;DHT22;4807;48.024;11.726;2022-10-16T02:34:44;10.60;99.90
9537;DHT22;4807;48.024;11.726;2022-10-16T02:37:55;10.70;99.90
9537;DHT22;4807;48.024;11.726;2022-10-16T02:41:04;10.70;99.90
9537;DHT22;4807;48.024;11.726;2022-10-16T02:44:13;10.60;99.90
9537;DHT22;4807;48.024;11.726;2022-10-16T02:47:22;10.60;99.90
9537;DHT22;4807;48.024;11.726;2022-10-16T02:50:31;10.50;99.90
9537;DHT22;4807;48.024;11.726;2022-10-16T02:53:40;10.50;99.90
9537;DHT22;4807;48.024;11.726;2022-10-16T02:56:48;10.40;99.90
9537;DHT22;4807;48.024;11.726;2022-10-16T02:59:56;10.40;99.90
9537;DHT22;4807;48.024;11.726;2022-10-16T03:03:05;10.40;99.90
9537;DHT22;4807;48.024;11.726;2022-10-16T03:06:16;10.30;99.90
9537;DHT22;4807;48.024;11.726;2022-10-16T03:09:24;10.30;99.90
9537;DHT22;4807;48.024;11.726;2022-10-16T03:12:32;10.30;99.90
9537;DHT22;4807;48.024;11.726;2022-10-16T03:15:41;10.20;99.90
9537;DHT22;4807;48.024;11.726;2022-10-16T03:18:49;10.20;99.90
9537;DHT22;4807;48.024;11.726;2022-10-16T03:21:59;10.10;99.90
9537;DHT22;4807;48.024;11.726;2022-10-16T03:25:08;10.10;99.90
9537;DHT22;4807;48.024;11.726;2022-10-16T03:28:16;10.20;99.90
9537;DHT22;4807;48.024;11.726;2022-10-16T03:31:25;10.20;99.90
9537;DHT22;4807;48.024;11.726;2022-10-16T03:34:33;10.20;99.90
9537;DHT22;4807;48.024;11.726;2022-10-16T03:37:43;10.20;99.90
9537;DHT22;4807;48.024;11.726;2022-10-16T03:40:51;10.20;99.90
9537;DHT22;4807;48.024;11.726;2022-10-16T03:44:00;10.20;99.90
9537;DHT22;4807;48.024;11.726;2022-10-16T03:47:08;10.30;99.90
9537;DHT22;4807;48.024;11.726;2022-10-16T03:50:17;10.30;99.90
9537;DHT22;4807;48.024;11.726;2022-10-16T03:53:26;10.30;99.90
9537;DHT22;4807;48.024;11.726;2022-10-16T03:56:35;10.50;99.90
9537;DHT22;4807;48.024;11.726;2022-10-16T03:59:43;10.50;99.90
9537;DHT22;4807;48.024;11.726;2022-10-16T04:02:52;10.60;99.90
9537;DHT22;4807;48.024;11.726;2022-10-16T04:06:00;10.60;99.90
9537;DHT22;4807;48.024;11.726;2022-10-16T04:09:10;10.70;99.90
9537;DHT22;4807;48.024;11.726;2022-10-16T04:12:18;10.80;99.90
9537;DHT22;4807;48.024;11.726;2022-10-16T04:15:26;10.70;99.90
9537;DHT22;4807;48.024;11.726;2022-10-16T04:18:35;10.90;99.90
9537;DHT22;4807;48.024;11.726;2022-10-16T04:21:44;11.00;99.90
9537;DHT22;4807;48.024;11.726;2022-10-16T04:24:54;11.10;99.90
9537;DHT22;4807;48.024;11.726;2022-10-16T04:28:03;11.10;99.90
9537;DHT22;4807;48.024;11.726;2022-10-16T04:31:11;11.20;99.90
9537;DHT22;4807;48.024;11.726;2022-10-16T04:34:20;11.20;99.90
9537;DHT22;4807;48.024;11.726;2022-10-16T04:37:29;11.30;99.90
9537;DHT22;4807;48.024;11.726;2022-10-16T04:40:41;11.30;99.90
9537;DHT22;4807;48.024;11.726;2022-10-16T04:43:50;11.30;99.90
9537;DHT22;4807;48.024;11.726;2022-10-16T04:46:58;11.30;99.90
9537;DHT22;4807;48.024;11.726;2022-10-16T04:50:08;11.40;99.90
9537;DHT22;4807;48.024;11.726;2022-10-16T04:53:18;11.40;99.90
9537;DHT22;4807;48.024;11.726;2022-10-16T04:56:28;11.40;99.90
9537;DHT22;4807;48.024;11.726;2022-10-16T04:59:38;11.40;99.90
9537;DHT22;4807;48.024;11.726;2022-10-16T05:02:50;11.40;99.90
9537;DHT22;4807;48.024;11.726;2022-10-16T05:06:00;11.50;99.90
9537;DHT22;4807;48.024;11.726;2022-10-16T05:09:08;11.50;99.90
9537;DHT22;4807;48.024;11.726;2022-10-16T05:12:18;11.50;99.90
9537;DHT22;4807;48.024;11.726;2022-10-16T05:15:27;11.50;99.90
9537;DHT22;4807;48.024;11.726;2022-10-16T05:18:35;11.60;99.90
9537;DHT22;4807;48.024;11.726;2022-10-16T05:21:46;11.60;99.90
9537;DHT22;4807;48.024;11.726;2022-10-16T05:24:55;11.50;99.90
9537;DHT22;4807;48.024;11.726;2022-10-16T05:28:04;11.50;99.90
9537;DHT22;4807;48.024;11.726;2022-10-16T05:31:13;11.50;99.90
9537;DHT22;4807;48.024;11.726;2022-10-16T05:34:21;11.60;99.90
9537;DHT22;4807;48.024;11.726;2022-10-16T05:37:30;11.70;99.90
9537;DHT22;4807;48.024;11.726;2022-10-16T05:40:38;11.80;99.90
9537;DHT22;4807;48.024;11.726;2022-10-16T05:43:48;11.80;99.90
9537;DHT22;4807;48.024;11.726;2022-10-16T05:46:57;11.80;99.90
9537;DHT22;4807;48.024;11.726;2022-10-16T05:50:06;11.80;99.90
9537;DHT22;4807;48.024;11.726;2022-10-16T05:53:15;11.70;99.90
9537;DHT22;4807;48.024;11.726;2022-10-16T05:56:23;11.70;99.90
9537;DHT22;4807;48.024;11.726;2022-10-16T05:59:33;11.70;99.90
9537;DHT22;4807;48.024;11.726;2022-10-16T06:02:42;11.70;99.90
9537;DHT22;4807;48.024;11.726;2022-10-16T06:05:51;11.80;99.90
9537;DHT22;4807;48.024;11.726;2022-10-16T06:09:00;12.00;99.90
9537;DHT22;4807;48.024;11.726;2022-10-16T06:12:09;12.10;99.90
9537;DHT22;4807;48.024;11.726;2022-10-16T06:15:19;12.20;99.90
9537;DHT22;4807;48.024;11.726;2022-10-16T06:18:28;12.30;99.90
9537;DHT22;4807;48.024;11.726;2022-10-16T06:21:37;12.40;99.90
9537;DHT22;4807;48.024;11.726;2022-10-16T06:24:45;12.50;99.90
9537;DHT22;4807;48.024;11.726;2022-10-16T06:27:54;12.70;99.90
9537;DHT22;4807;48.024;11.726;2022-10-16T06:31:05;12.90;99.90
9537;DHT22;4807;48.024;11.726;2022-10-16T06:34:15;12.90;99.90
9537;DHT22;4807;48.024;11.726;2022-10-16T06:37:23;13.10;99.90
9537;DHT22;4807;48.024;11.726;2022-10-16T06:43:41;13.30;99.90
9537;DHT22;4807;48.024;11.726;2022-10-16T06:46:52;13.60;99.90
9537;DHT22;4807;48.024;11.726;2022-10-16T06:50:00;13.60;99.90
9537;DHT22;4807;48.024;11.726;2022-10-16T06:53:11;13.80;99.90
9537;DHT22;4807;48.024;11.726;2022-10-16T06:56:21;13.80;99.90
9537;DHT22;4807;48.024;11.726;2022-10-16T06:59:30;13.90;99.90
9537;DHT22;4807;48.024;11.726;2022-10-16T07:02:41;13.90;99.90
9537;DHT22;4807;48.024;11.726;2022-10-16T07:05:50;14.20;99.90
9537;DHT22;4807;48.024;11.726;2022-10-16T07:09:12;14.40;99.90
9537;DHT22;4807;48.024;11.726;2022-10-16T07:12:38;14.40;99.90
9537;DHT22;4807;48.024;11.726;2022-10-16T07:15:46;14.50;99.90
9537;DHT22;4807;48.024;11.726;2022-10-16T07:18:58;14.50;99.90
9537;DHT22;4807;48.024;11.726;2022-10-16T07:22:08;14.50;99.90
9537;DHT22;4807;48.024;11.726;2022-10-16T07:25:17;14.60;99.90
9537;DHT22;4807;48.024;11.726;2022-10-16T07:28:26;15.00;99.90
9537;DHT22;4807;48.024;11.726;2022-10-16T07:31:34;15.00;99.90
9537;DHT22;4807;48.024;11.726;2022-10-16T07:34:46;15.10;99.90
9537;DHT22;4807;48.024;11.726;2022-10-16T07:37:54;15.20;99.90
9537;DHT22;4807;48.024;11.726;2022-10-16T07:41:04;15.70;99.90
9537;DHT22;4807;48.024;11.726;2022-10-16T07:44:15;15.60;99.90
9537;DHT22;4807;48.024;11.726;2022-10-16T07:47:25;15.80;99.90
9537;DHT22;4807;48.024;11.726;2022-10-16T07:50:36;16.00;99.90
9537;DHT22;4807;48.024;11.726;2022-10-16T07:53:45;16.20;99.90
9537;DHT22;4807;48.024;11.726;2022-10-16T07:56:53;16.40;99.90
9537;DHT22;4807;48.024;11.726;2022-10-16T08:00:03;16.60;99.90
9537;DHT22;4807;48.024;11.726;2022-10-16T08:03:17;16.70;99.90
9537;DHT22;4807;48.024;11.726;2022-10-16T08:06:27;16.80;99.90
9537;DHT22;4807;48.024;11.726;2022-10-16T08:09:36;17.10;99.90
9537;DHT22;4807;48.024;11.726;2022-10-16T08:12:44;17.30;99.90
9537;DHT22;4807;48.024;11.726;2022-10-16T08:15:54;17.40;99.90
9537;DHT22;4807;48.024;11.726;2022-10-16T08:19:03;17.50;99.90
9537;DHT22;4807;48.024;11.726;2022-10-16T08:22:12;17.70;99.90
9537;DHT22;4807;48.024;11.726;2022-10-16T08:25:22;17.60;99.90
9537;DHT22;4807;48.024;11.726;2022-10-16T08:28:32;17.80;99.90
9537;DHT22;4807;48.024;11.726;2022-10-16T08:31:41;17.90;99.90
9537;DHT22;4807;48.024;11.726;2022-10-16T08:34:49;18.10;99.90
9537;DHT22;4807;48.024;11.726;2022-10-16T08:37:59;18.20;99.90
9537;DHT22;4807;48.024;11.726;2022-10-16T08:41:21;18.30;99.90
9537;DHT22;4807;48.024;11.726;2022-10-16T08:45:04;18.30;99.90
9537;DHT22;4807;48.024;11.726;2022-10-16T08:48:39;18.40;99.90
9537;DHT22;4807;48.024;11.726;2022-10-16T08:51:53;18.60;99.90
9537;DHT22;4807;48.024;11.726;2022-10-16T08:55:06;18.70;99.90
9537;DHT22;4807;48.024;11.726;2022-10-16T08:58:27;18.70;99.90
9537;DHT22;4807;48.024;11.726;2022-10-16T09:01:39;18.80;99.90
9537;DHT22;4807;48.024;11.726;2022-10-16T09:05:17;18.90;99.90
9537;DHT22;4807;48.024;11.726;2022-10-16T09:08:42;19.00;99.90
9537;DHT22;4807;48.024;11.726;2022-10-16T09:12:08;19.20;99.90
9537;DHT22;4807;48.024;11.726;2022-10-16T09:15:30;19.30;99.90
9537;DHT22;4807;48.024;11.726;2022-10-16T09:18:48;19.50;99.90
9537;DHT22;4807;48.024;11.726;2022-10-16T09:22:10;19.60;99.90
9537;DHT22;4807;48.024;11.726;2022-10-16T09:25:22;19.70;99.90
9537;DHT22;4807;48.024;11.726;2022-10-16T09:28:32;19.90;98.90
9537;DHT22;4807;48.024;11.726;2022-10-16T09:31:42;20.00;98.50
9537;DHT22;4807;48.024;11.726;2022-10-16T09:34:54;20.10;98.40
9537;DHT22;4807;48.024;11.726;2022-10-16T09:38:04;20.40;98.50
9537;DHT22;4807;48.024;11.726;2022-10-16T09:41:18;20.50;97.50
9537;DHT22;4807;48.024;11.726;2022-10-16T09:44:31;20.60;97.30
9537;DHT22;4807;48.024;11.726;2022-10-16T09:47:41;20.70;96.90
9537;DHT22;4807;48.024;11.726;2022-10-16T09:50:59;20.90;97.50
9537;DHT22;4807;48.024;11.726;2022-10-16T09:54:15;21.10;96.50
9537;DHT22;4807;48.024;11.726;2022-10-16T09:57:26;21.20;95.70
9537;DHT22;4807;48.024;11.726;2022-10-16T10:00:41;21.40;95.40
9537;DHT22;4807;48.024;11.726;2022-10-16T10:03:57;21.50;95.10
9537;DHT22;4807;48.024;11.726;2022-10-16T10:07:18;21.60;94.60
9537;DHT22;4807;48.024;11.726;2022-10-16T10:10:34;21.70;95.00
9537;DHT22;4807;48.024;11.726;2022-10-16T10:13:49;21.90;96.50
9537;DHT22;4807;48.024;11.726;2022-10-16T10:17:14;22.10;94.10
9537;DHT22;4807;48.024;11.726;2022-10-16T10:20:28;22.20;95.50
9537;DHT22;4807;48.024;11.726;2022-10-16T10:26:54;21.40;93.40
9537;DHT22;4807;48.024;11.726;2022-10-16T10:30:17;22.40;93.60
9537;DHT22;4807;48.024;11.726;2022-10-16T10:33:37;22.50;93.90
9537;DHT22;4807;48.024;11.726;2022-10-16T10:36:56;22.60;93.00
9537;DHT22;4807;48.024;11.726;2022-10-16T10:40:23;22.70;93.70
9537;DHT22;4807;48.024;11.726;2022-10-16T10:43:48;22.80;93.30
9537;DHT22;4807;48.024;11.726;2022-10-16T10:47:14;22.80;92.00
9537;DHT22;4807;48.024;11.726;2022-10-16T10:50:41;22.80;92.00
9537;DHT22;4807;48.024;11.726;2022-10-16T10:54:01;22.80;91.50
9537;DHT22;4807;48.024;11.726;2022-10-16T10:57:29;22.90;90.40
9537;DHT22;4807;48.024;11.726;2022-10-16T11:00:53;23.00;88.90
9537;DHT22;4807;48.024;11.726;2022-10-16T11:08:02;23.00;85.60
9537;DHT22;4807;48.024;11.726;2022-10-16T11:11:20;23.00;84.40
9537;DHT22;4807;48.024;11.726;2022-10-16T11:14:36;23.00;83.70
9537;DHT22;4807;48.024;11.726;2022-10-16T11:17:53;23.00;83.20
9537;DHT22;4807;48.024;11.726;2022-10-16T11:21:08;23.00;85.80
9537;DHT22;4807;48.024;11.726;2022-10-16T11:24:30;23.10;81.40
9537;DHT22;4807;48.024;11.726;2022-10-16T11:27:51;23.00;81.30
9537;DHT22;4807;48.024;11.726;2022-10-16T11:31:09;23.00;80.20
9537;DHT22;4807;48.024;11.726;2022-10-16T11:34:28;22.90;86.10
9537;DHT22;4807;48.024;11.726;2022-10-16T11:37:44;22.80;86.60
9537;DHT22;4807;48.024;11.726;2022-10-16T11:41:00;22.80;82.60
9537;DHT22;4807;48.024;11.726;2022-10-16T11:44:32;23.60;83.10
9537;DHT22;4807;48.024;11.726;2022-10-16T11:47:53;22.90;83.30
9537;DHT22;4807;48.024;11.726;2022-10-16T11:51:14;23.00;83.40
9537;DHT22;4807;48.024;11.726;2022-10-16T11:54:35;22.90;82.40
9537;DHT22;4807;48.024;11.726;2022-10-16T11:57:51;23.00;78.30
9537;DHT22;4807;48.024;11.726;2022-10-16T12:01:15;23.00;79.00
9537;DHT22;4807;48.024;11.726;2022-10-16T12:04:39;22.40;76.20
9537;DHT22;4807;48.024;11.726;2022-10-16T12:08:01;22.90;80.20
9537;DHT22;4807;48.024;11.726;2022-10-16T12:11:31;22.90;76.00
9537;DHT22;4807;48.024;11.726;2022-10-16T12:14:44;22.90;76.80
9537;DHT22;4807;48.024;11.726;2022-10-16T12:18:21;22.90;74.40
9537;DHT22;4807;48.024;11.726;2022-10-16T12:21:31;23.00;77.00
9537;DHT22;4807;48.024;11.726;2022-10-16T12:24:42;23.00;78.20
9537;DHT22;4807;48.024;11.726;2022-10-16T12:27:59;23.10;78.00
9537;DHT22;4807;48.024;11.726;2022-10-16T12:31:11;23.00;76.80
9537;DHT22;4807;48.024;11.726;2022-10-16T12:34:24;23.00;74.50
9537;DHT22;4807;48.024;11.726;2022-10-16T12:37:38;23.10;75.40
9537;DHT22;4807;48.024;11.726;2022-10-16T12:40:55;23.00;76.00
9537;DHT22;4807;48.024;11.726;2022-10-16T12:44:22;23.00;73.90
9537;DHT22;4807;48.024;11.726;2022-10-16T12:47:48;23.00;75.90
9537;DHT22;4807;48.024;11.726;2022-10-16T12:51:09;22.90;78.60
9537;DHT22;4807;48.024;11.726;2022-10-16T12:54:26;22.90;80.30
9537;DHT22;4807;48.024;11.726;2022-10-16T12:57:55;22.90;74.10
9537;DHT22;4807;48.024;11.726;2022-10-16T13:01:21;23.00;77.60
9537;DHT22;4807;48.024;11.726;2022-10-16T13:04:47;23.00;77.20
9537;DHT22;4807;48.024;11.726;2022-10-16T13:12:19;22.90;75.60
9537;DHT22;4807;48.024;11.726;2022-10-16T13:15:56;23.00;79.10
9537;DHT22;4807;48.024;11.726;2022-10-16T13:19:19;23.00;75.90
9537;DHT22;4807;48.024;11.726;2022-10-16T13:22:40;22.90;73.70
9537;DHT22;4807;48.024;11.726;2022-10-16T13:26:12;22.80;73.30
9537;DHT22;4807;48.024;11.726;2022-10-16T13:29:32;22.80;75.20
9537;DHT22;4807;48.024;11.726;2022-10-16T13:32:45;22.80;74.40
9537;DHT22;4807;48.024;11.726;2022-10-16T13:35:57;22.80;74.00
9537;DHT22;4807;48.024;11.726;2022-10-16T13:39:13;22.80;73.80
9537;DHT22;4807;48.024;11.726;2022-10-16T13:42:25;22.70;74.00
9537;DHT22;4807;48.024;11.726;2022-10-16T13:45:36;22.70;75.80
9537;DHT22;4807;48.024;11.726;2022-10-16T13:48:45;22.70;75.90
9537;DHT22;4807;48.024;11.726;2022-10-16T13:52:05;22.80;75.00
9537;DHT22;4807;48.024;11.726;2022-10-16T13:55:19;22.80;75.10
9537;DHT22;4807;48.024;11.726;2022-10-16T13:58:32;22.70;75.40
9537;DHT22;4807;48.024;11.726;2022-10-16T14:01:43;22.60;77.10
9537;DHT22;4807;48.024;11.726;2022-10-16T14:04:53;22.60;75.00
9537;DHT22;4807;48.024;11.726;2022-10-16T14:08:02;22.70;72.50
9537;DHT22;4807;48.024;11.726;2022-10-16T14:11:12;22.70;74.20
9537;DHT22;4807;48.024;11.726;2022-10-16T14:14:21;22.70;72.80
9537;DHT22;4807;48.024;11.726;2022-10-16T14:17:32;22.60;73.50
9537;DHT22;4807;48.024;11.726;2022-10-16T14:20:44;22.70;72.90
9537;DHT22;4807;48.024;11.726;2022-10-16T14:23:52;22.70;73.10
9537;DHT22;4807;48.024;11.726;2022-10-16T14:27:24;22.60;75.40
9537;DHT22;4807;48.024;11.726;2022-10-16T14:30:36;22.40;76.90
9537;DHT22;4807;48.024;11.726;2022-10-16T14:33:45;22.30;74.50
9537;DHT22;4807;48.024;11.726;2022-10-16T14:36:55;22.30;76.00
9537;DHT22;4807;48.024;11.726;2022-10-16T14:40:14;22.40;74.10
9537;DHT22;4807;48.024;11.726;2022-10-16T14:43:31;22.30;73.30
9537;DHT22;4807;48.024;11.726;2022-10-16T14:46:43;22.40;73.50
9537;DHT22;4807;48.024;11.726;2022-10-16T14:49:53;22.30;74.80
9537;DHT22;4807;48.024;11.726;2022-10-16T14:53:09;24.70;77.30
9537;DHT22;4807;48.024;11.726;2022-10-16T14:56:22;22.30;73.00
9537;DHT22;4807;48.024;11.726;2022-10-16T14:59:37;22.30;73.70
9537;DHT22;4807;48.024;11.726;2022-10-16T15:02:51;22.30;80.40
9537;DHT22;4807;48.024;11.726;2022-10-16T15:06:00;22.30;80.30
9537;DHT22;4807;48.024;11.726;2022-10-16T15:09:08;22.20;78.80
9537;DHT22;4807;48.024;11.726;2022-10-16T15:12:18;22.10;76.80
9537;DHT22;4807;48.024;11.726;2022-10-16T15:15:37;21.90;76.70
9537;DHT22;4807;48.024;11.726;2022-10-16T15:18:48;21.80;78.00
9537;DHT22;4807;48.024;11.726;2022-10-16T15:21:56;21.50;79.70
9537;DHT22;4807;48.024;11.726;2022-10-16T15:25:29;21.30;81.30
9537;DHT22;4807;48.024;11.726;2022-10-16T15:28:41;21.10;82.30
9537;DHT22;4807;48.024;11.726;2022-10-16T15:31:51;20.90;82.40
9537;DHT22;4807;48.024;11.726;2022-10-16T15:35:00;20.70;86.20
9537;DHT22;4807;48.024;11.726;2022-10-16T15:38:11;20.50;85.70
9537;DHT22;4807;48.024;11.726;2022-10-16T15:41:21;20.30;88.50
9537;DHT22;4807;48.024;11.726;2022-10-16T15:44:30;20.00;90.10
9537;DHT22;4807;48.024;11.726;2022-10-16T15:47:40;20.00;90.40
9537;DHT22;4807;48.024;11.726;2022-10-16T15:50:51;19.90;90.70
9537;DHT22;4807;48.024;11.726;2022-10-16T15:54:00;19.70;91.30
9537;DHT22;4807;48.024;11.726;2022-10-16T15:57:09;19.50;92.00
9537;DHT22;4807;48.024;11.726;2022-10-16T16:00:19;19.30;92.90
9537;DHT22;4807;48.024;11.726;2022-10-16T16:03:31;19.00;93.70
9537;DHT22;4807;48.024;11.726;2022-10-16T16:06:41;18.80;94.30
9537;DHT22;4807;48.024;11.726;2022-10-16T16:09:51;18.60;95.00
9537;DHT22;4807;48.024;11.726;2022-10-16T16:13:00;18.40;95.70
9537;DHT22;4807;48.024;11.726;2022-10-16T16:16:11;18.20;96.60
9537;DHT22;4807;48.024;11.726;2022-10-16T16:19:24;18.00;97.50
9537;DHT22;4807;48.024;11.726;2022-10-16T16:22:33;17.90;98.30
9537;DHT22;4807;48.024;11.726;2022-10-16T16:25:42;17.70;98.50
9537;DHT22;4807;48.024;11.726;2022-10-16T16:28:50;17.50;99.00
9537;DHT22;4807;48.024;11.726;2022-10-16T16:31:59;17.40;99.90
9537;DHT22;4807;48.024;11.726;2022-10-16T16:35:10;17.20;99.90
9537;DHT22;4807;48.024;11.726;2022-10-16T16:38:18;17.10;99.90
9537;DHT22;4807;48.024;11.726;2022-10-16T16:41:30;17.00;99.90
9537;DHT22;4807;48.024;11.726;2022-10-16T16:44:39;16.90;99.90
9537;DHT22;4807;48.024;11.726;2022-10-16T16:47:47;16.80;99.90
9537;DHT22;4807;48.024;11.726;2022-10-16T16:51:03;16.60;99.90
9537;DHT22;4807;48.024;11.726;2022-10-16T16:54:12;16.50;99.90
9537;DHT22;4807;48.024;11.726;2022-10-16T16:57:21;16.30;99.90
9537;DHT22;4807;48.024;11.726;2022-10-16T17:00:29;16.20;99.90
9537;DHT22;4807;48.024;11.726;2022-10-16T17:03:42;16.10;99.90
9537;DHT22;4807;48.024;11.726;2022-10-16T17:06:54;16.00;99.90
9537;DHT22;4807;48.024;11.726;2022-10-16T17:10:04;15.90;99.90
9537;DHT22;4807;48.024;11.726;2022-10-16T17:13:13;15.80;99.90
9537;DHT22;4807;48.024;11.726;2022-10-16T17:16:22;15.80;99.90
9537;DHT22;4807;48.024;11.726;2022-10-16T17:19:31;15.60;99.90
9537;DHT22;4807;48.024;11.726;2022-10-16T17:22:42;15.50;99.90
9537;DHT22;4807;48.024;11.726;2022-10-16T17:25:51;15.60;99.90
9537;DHT22;4807;48.024;11.726;2022-10-16T17:29:00;15.70;99.90
9537;DHT22;4807;48.024;11.726;2022-10-16T17:32:09;15.50;99.90
9537;DHT22;4807;48.024;11.726;2022-10-16T17:35:17;15.20;99.90
9537;DHT22;4807;48.024;11.726;2022-10-16T17:38:27;15.10;99.90
9537;DHT22;4807;48.024;11.726;2022-10-16T17:41:36;14.90;99.90
9537;DHT22;4807;48.024;11.726;2022-10-16T17:44:45;14.90;99.90
9537;DHT22;4807;48.024;11.726;2022-10-16T17:47:53;14.80;99.90
9537;DHT22;4807;48.024;11.726;2022-10-16T17:51:03;14.80;99.90
9537;DHT22;4807;48.024;11.726;2022-10-16T17:54:14;14.70;99.90
9537;DHT22;4807;48.024;11.726;2022-10-16T17:57:23;15.00;99.90
9537;DHT22;4807;48.024;11.726;2022-10-16T18:00:31;14.60;99.90
9537;DHT22;4807;48.024;11.726;2022-10-16T18:03:40;14.50;99.90
9537;DHT22;4807;48.024;11.726;2022-10-16T18:06:49;14.40;99.90
9537;DHT22;4807;48.024;11.726;2022-10-16T18:09:59;14.40;99.90
9537;DHT22;4807;48.024;11.726;2022-10-16T18:13:17;14.30;99.90
9537;DHT22;4807;48.024;11.726;2022-10-16T18:16:27;14.30;99.90
9537;DHT22;4807;48.024;11.726;2022-10-16T18:19:37;14.40;99.90
9537;DHT22;4807;48.024;11.726;2022-10-16T18:22:45;14.30;99.90
9537;DHT22;4807;48.024;11.726;2022-10-16T18:25:55;14.20;99.90
9537;DHT22;4807;48.024;11.726;2022-10-16T18:29:04;14.10;99.90
9537;DHT22;4807;48.024;11.726;2022-10-16T18:32:12;14.10;99.90
9537;DHT22;4807;48.024;11.726;2022-10-16T18:35:21;14.00;99.90
9537;DHT22;4807;48.024;11.726;2022-10-16T18:38:30;14.00;99.90
9537;DHT22;4807;48.024;11.726;2022-10-16T18:41:41;13.90;99.90
9537;DHT22;4807;48.024;11.726;2022-10-16T18:44:51;13.80;99.90
9537;DHT22;4807;48.024;11.726;2022-10-16T18:47:59;14.60;99.90
9537;DHT22;4807;48.024;11.726;2022-10-16T18:51:10;13.70;99.90
9537;DHT22;4807;48.024;11.726;2022-10-16T18:54:22;13.70;99.90
9537;DHT22;4807;48.024;11.726;2022-10-16T18:57:33;13.70;99.90
9537;DHT22;4807;48.024;11.726;2022-10-16T19:00:42;13.60;99.90
9537;DHT22;4807;48.024;11.726;2022-10-16T19:03:54;13.60;99.90
9537;DHT22;4807;48.024;11.726;2022-10-16T19:07:03;13.50;99.90
9537;DHT22;4807;48.024;11.726;2022-10-16T19:10:11;13.40;99.90
9537;DHT22;4807;48.024;11.726;2022-10-16T19:13:21;13.40;99.90
9537;DHT22;4807;48.024;11.726;2022-10-16T19:16:32;13.40;99.90
9537;DHT22;4807;48.024;11.726;2022-10-16T19:19:42;13.30;99.90
9537;DHT22;4807;48.024;11.726;2022-10-16T19:22:51;13.30;99.90
9537;DHT22;4807;48.024;11.726;2022-10-16T19:26:02;13.30;99.90
9537;DHT22;4807;48.024;11.726;2022-10-16T19:29:13;13.20;99.90
9537;DHT22;4807;48.024;11.726;2022-10-16T19:32:22;13.20;99.90
9537;DHT22;4807;48.024;11.726;2022-10-16T19:35:31;13.20;99.90
9537;DHT22;4807;48.024;11.726;2022-10-16T19:38:41;13.20;99.90
9537;DHT22;4807;48.024;11.726;2022-10-16T19:41:50;13.00;99.90
9537;DHT22;4807;48.024;11.726;2022-10-16T19:45:01;13.00;99.90
9537;DHT22;4807;48.024;11.726;2022-10-16T19:48:10;12.90;99.90
9537;DHT22;4807;48.024;11.726;2022-10-16T19:51:19;12.90;99.90
9537;DHT22;4807;48.024;11.726;2022-10-16T19:54:27;12.80;99.90
9537;DHT22;4807;48.024;11.726;2022-10-16T19:57:36;12.80;99.90
9537;DHT22;4807;48.024;11.726;2022-10-16T20:00:47;12.70;99.90
9537;DHT22;4807;48.024;11.726;2022-10-16T20:03:56;12.70;99.90
9537;DHT22;4807;48.024;11.726;2022-10-16T20:07:05;12.70;99.90
9537;DHT22;4807;48.024;11.726;2022-10-16T20:35:34;12.20;99.90
9537;DHT22;4807;48.024;11.726;2022-10-16T20:38:43;12.10;99.90
9537;DHT22;4807;48.024;11.726;2022-10-16T20:41:52;12.10;99.90
9537;DHT22;4807;48.024;11.726;2022-10-16T20:45:01;12.00;99.90
9537;DHT22;4807;48.024;11.726;2022-10-16T20:48:12;12.00;99.90
9537;DHT22;4807;48.024;11.726;2022-10-16T20:51:22;11.90;99.90
9537;DHT22;4807;48.024;11.726;2022-10-16T20:54:32;11.80;99.90
9537;DHT22;4807;48.024;11.726;2022-10-16T20:57:40;11.90;99.90
9537;DHT22;4807;48.024;11.726;2022-10-16T21:00:48;11.80;99.90
9537;DHT22;4807;48.024;11.726;2022-10-16T21:04:01;11.80;99.90
9537;DHT22;4807;48.024;11.726;2022-10-16T21:07:12;11.80;99.90
9537;DHT22;4807;48.024;11.726;2022-10-16T21:10:21;11.80;99.90
9537;DHT22;4807;48.024;11.726;2022-10-16T21:13:29;11.90;99.90
9537;DHT22;4807;48.024;11.726;2022-10-16T21:16:38;11.90;99.90